createdAt,value
2023-01-13T00:00:10.640Z,61.86
2023-01-13T00:05:15.154Z,61.98
2023-01-13T00:10:17.144Z,62.98
2023-01-13T00:15:18.917Z,62.81
2023-01-13T00:20:21.081Z,62.12
2023-01-13T00:25:22.836Z,61.54
2023-01-13T00:30:24.650Z,61.06
2023-01-13T00:35:27.121Z,60.79
2023-01-13T00:40:28.928Z,60.49
2023-01-13T00:45:30.693Z,60.41
2023-01-13T00:50:33.118Z,63.05
2023-01-13T00:55:34.929Z,61.22
2023-01-13T01:00:37.016Z,60.18
2023-01-13T01:05:39.914Z,60.30
2023-01-13T01:10:41.687Z,60.65
2023-01-13T01:15:44.589Z,60.99
2023-01-13T01:20:46.642Z,60.48
2023-01-13T01:25:48.493Z,60.83
2023-01-13T01:30:51.393Z,60.29
2023-01-13T01:35:54.135Z,60.08
2023-01-13T01:40:56.492Z,63.09
2023-01-13T01:45:58.309Z,60.86
2023-01-13T01:51:00.488Z,59.99
2023-01-13T01:56:03.520Z,59.49
2023-01-13T02:01:05.451Z,61.68
2023-01-13T02:06:08.357Z,62.11
2023-01-13T02:11:47.407Z,60.00
2023-01-13T02:17:07.320Z,59.46
2023-01-13T02:22:26.374Z,62.75
2023-01-13T02:27:46.653Z,60.80
2023-01-13T02:33:00.032Z,61.72
2023-01-13T02:38:02.832Z,62.31
2023-01-13T02:43:33.731Z,59.74
2023-01-13T02:48:38.280Z,60.34
2023-01-13T02:53:53.846Z,63.14
2023-01-13T02:58:57.914Z,60.48
2023-01-13T03:03:59.631Z,59.88
2023-01-13T03:09:10.633Z,59.59
2023-01-13T03:14:27.566Z,62.54
2023-01-13T03:19:43.091Z,62.27
2023-01-13T03:24:53.451Z,60.67
2023-01-13T03:30:08.121Z,60.24
2023-01-13T03:35:19.013Z,59.68
2023-01-13T03:40:26.168Z,61.01
2023-01-13T03:45:31.174Z,63.01
2023-01-13T03:50:41.013Z,61.61
2023-01-13T03:55:50.245Z,60.78
2023-01-13T04:00:55.690Z,60.23
2023-01-13T04:06:08.933Z,59.74
2023-01-13T04:11:19.738Z,61.80
2023-01-13T04:16:21.572Z,62.13
2023-01-13T04:21:23.284Z,60.57
2023-01-13T04:26:24.978Z,59.63
2023-01-13T04:31:26.925Z,59.61
2023-01-13T04:36:28.756Z,61.18
2023-01-13T04:41:53.319Z,62.55
2023-01-13T04:46:55.189Z,60.83
2023-01-13T04:51:57.381Z,59.67
2023-01-13T04:56:59.099Z,61.61
2023-01-13T05:02:00.840Z,62.31
2023-01-13T05:07:02.616Z,60.19
2023-01-13T05:12:23.194Z,59.74
2023-01-13T05:17:26.103Z,62.83
2023-01-13T05:22:51.036Z,61.88
2023-01-13T05:27:55.735Z,61.20
2023-01-13T05:32:57.695Z,60.86
2023-01-13T05:37:59.375Z,60.12
2023-01-13T05:43:21.973Z,59.93
2023-01-13T05:48:26.861Z,59.90
2023-01-13T05:53:29.287Z,62.90
2023-01-13T05:58:31.388Z,61.24
2023-01-13T06:03:33.496Z,60.08
2023-01-13T06:08:35.568Z,59.62
2023-01-13T06:13:37.922Z,61.49
2023-01-13T06:18:39.707Z,62.16
2023-01-13T06:23:41.380Z,61.26
2023-01-13T06:28:43.148Z,60.51
2023-01-13T06:33:52.469Z,60.27
2023-01-13T06:38:57.730Z,60.74
2023-01-13T06:43:59.492Z,61.06
2023-01-13T06:49:01.294Z,61.07
2023-01-13T06:54:03.368Z,60.82
2023-01-13T06:59:05.055Z,60.87
2023-01-13T07:04:06.751Z,60.47
2023-01-13T07:09:08.428Z,60.14
2023-01-13T07:14:29.117Z,60.00
2023-01-13T07:19:30.844Z,60.11
2023-01-13T07:24:32.535Z,62.68
2023-01-13T07:29:34.213Z,61.29
2023-01-13T07:34:36.000Z,60.64
2023-01-13T07:39:37.725Z,60.91
2023-01-13T07:44:39.444Z,61.15
2023-01-13T07:49:41.135Z,61.48
2023-01-13T07:54:42.835Z,61.57
2023-01-13T07:59:44.500Z,62.23
2023-01-13T08:04:46.275Z,62.17
2023-01-13T08:09:48.969Z,62.53
2023-01-13T08:14:51.761Z,62.50
2023-01-13T08:19:53.528Z,62.36
2023-01-13T08:24:55.230Z,61.95
2023-01-13T08:29:56.926Z,61.79
2023-01-13T08:34:58.621Z,61.88
2023-01-13T08:40:00.302Z,61.35
2023-01-13T18:16:07.195Z,68.43
2023-01-13T18:21:37.949Z,67.42
2023-01-13T18:26:58.443Z,68.41
2023-01-13T18:32:00.248Z,69.53
2023-01-13T18:37:02.253Z,70.16
2023-01-13T18:42:24.104Z,70.66
2023-01-13T18:47:28.857Z,71.14
2023-01-13T18:52:30.592Z,70.83
2023-01-13T18:57:32.324Z,70.91
2023-01-13T19:02:34.447Z,71.15
2023-01-13T19:07:36.761Z,72.09
2023-01-13T19:12:38.434Z,73.01
2023-01-13T19:17:40.361Z,73.45
2023-01-13T19:22:42.289Z,73.85
2023-01-13T19:27:44.300Z,74.43
2023-01-13T19:32:46.052Z,74.94
2023-01-13T19:37:47.797Z,74.86
2023-01-13T19:43:08.331Z,75.24
2023-01-13T19:48:10.087Z,75.94
2023-01-13T19:53:17.895Z,75.88
2023-01-13T19:58:21.232Z,75.37
2023-01-13T20:03:25.947Z,75.70
2023-01-13T20:08:28.187Z,75.15
2023-01-13T20:13:32.428Z,73.05
2023-01-13T20:18:36.623Z,72.77
2023-01-13T20:23:38.387Z,71.96
2023-01-13T20:28:40.194Z,71.95
2023-01-13T20:33:43.154Z,71.70
2023-01-13T20:38:44.816Z,70.08
2023-01-13T20:43:48.893Z,68.60
2023-01-13T20:48:50.770Z,68.82
2023-01-13T20:53:52.569Z,68.14
2023-01-13T20:58:54.463Z,67.07
2023-01-13T21:03:57.226Z,67.09
2023-01-13T21:08:59.119Z,66.45
2023-01-13T21:14:19.608Z,67.13
2023-01-13T21:19:21.311Z,67.31
2023-01-13T21:24:24.249Z,66.77
2023-01-13T21:29:25.988Z,66.30
2023-01-13T21:34:27.782Z,66.02
2023-01-13T21:39:29.560Z,66.32
2023-01-13T21:44:50.175Z,65.38
2023-01-13T21:49:51.963Z,66.30
2023-01-13T21:55:12.534Z,66.68
2023-01-13T22:00:15.711Z,67.49
2023-01-13T22:05:20.037Z,67.68
2023-01-13T22:10:24.379Z,67.46
2023-01-13T22:15:28.352Z,68.26
2023-01-13T22:20:30.051Z,67.84
2023-01-13T22:25:31.744Z,67.51
2023-01-13T22:30:33.477Z,67.17
2023-01-13T22:35:35.214Z,66.13
2023-01-13T22:40:36.885Z,64.69
2023-01-13T22:45:39.100Z,64.49
2023-01-13T22:50:40.819Z,64.19
2023-01-13T22:55:44.363Z,64.36
2023-01-13T23:00:46.904Z,64.32
2023-01-13T23:05:49.597Z,66.11
2023-01-13T23:10:51.256Z,66.53
2023-01-13T23:15:53.038Z,65.41
2023-01-13T23:20:54.810Z,64.62
2023-01-13T23:26:18.930Z,65.01
2023-01-13T23:36:01.008Z,66.62
2023-01-13T23:41:07.354Z,66.62
2023-01-13T23:46:14.154Z,66.88
2023-01-13T23:51:16.160Z,66.00
2023-01-13T23:56:21.285Z,65.30
